Time;durP1;ratioP1;P1;durP2;ratioP2;P2;SDS_P1;SDS_P2;PMS_P1;PMS_P2;Temp;Humidity;BMP_temperature;BMP_pressure;BME280_temperature;BME280_humidity;BME280_pressure;Samples;Min_cycle;Max_cycle;Signal;HPM_P1;HPM_P2
2023/06/08 00:02:23;;;;;;;6.20;4.60;;;;;;;-143.21;65.14;71739.06;5073735;28;20208;-77
2023/06/08 00:04:50;;;;;;;8.98;4.57;;;;;;;-143.21;65.22;71750.94;5073521;28;20244;-78
2023/06/08 00:07:18;;;;;;;5.78;4.60;;;;;;;-143.21;65.03;71758.88;5073236;28;20633;-78
2023/06/08 00:09:45;;;;;;;9.18;4.93;;;;;;;-143.21;65.15;71752.94;5073503;28;20190;-78
2023/06/08 00:12:13;;;;;;;12.98;4.63;;;;;;;-143.21;65.12;71756.91;5073473;28;20205;-79
2023/06/08 00:14:40;;;;;;;9.63;4.70;;;;;;;-143.21;65.22;71760.88;5073098;28;20602;-78
2023/06/08 00:17:10;;;;;;;7.20;4.53;;;;;;;-143.21;64.44;71752.94;5073708;28;20197;-77
2023/06/08 00:19:37;;;;;;;8.10;4.60;;;;;;;-143.21;64.49;71760.88;5073892;28;20221;-78
2023/06/08 00:22:07;;;;;;;9.80;4.53;;;;;;;-143.21;64.21;71770.78;5073059;28;20227;-77
2023/06/08 00:24:34;;;;;;;7.88;4.47;;;;;;;-143.21;64.51;71774.75;5073431;28;20521;-77
2023/06/08 00:27:01;;;;;;;8.15;4.18;;;;;;;-143.21;64.29;71778.72;5073688;28;20197;-78
2023/06/08 00:29:29;;;;;;;6.22;4.60;;;;;;;-143.21;64.50;71786.63;5072030;28;20200;-77
2023/06/08 00:31:56;;;;;;;7.90;3.95;;;;;;;-143.21;64.35;71788.63;5072960;28;20227;-77
2023/06/08 00:34:23;;;;;;;7.47;4.30;;;;;;;-143.21;64.33;71792.59;5072862;28;20202;-78
2023/06/08 00:36:51;;;;;;;5.80;3.95;;;;;;;-143.21;64.20;71790.59;5072575;28;20296;-77
2023/06/08 00:39:17;;;;;;;8.10;4.28;;;;;;;-143.21;64.14;71788.63;5072805;28;20596;-77
2023/06/08 00:41:45;;;;;;;8.32;4.30;;;;;;;-143.21;64.15;71788.63;5073012;28;20252;-77
2023/06/08 00:44:11;;;;;;;6.50;3.92;;;;;;;-143.21;64.12;71796.56;5072381;28;20212;-77
2023/06/08 00:46:40;;;;;;;5.47;4.10;;;;;;;-143.21;64.30;71792.59;5072390;28;20204;-78
2023/06/08 00:49:11;;;;;;;6.22;3.72;;;;;;;-143.21;63.89;71788.63;5072485;28;20264;-77
2023/06/08 00:51:41;;;;;;;10.25;3.72;;;;;;;-143.21;64.36;71794.56;5072308;28;20181;-78
2023/06/08 00:54:10;;;;;;;6.03;3.72;;;;;;;-143.21;64.38;71802.50;5052991;28;20198;-76
2023/06/08 00:56:38;;;;;;;7.70;4.15;;;;;;;-143.21;64.33;71802.50;5052785;28;20194;-76
2023/06/08 00:59:05;;;;;;;8.20;4.05;;;;;;;-143.21;64.43;71810.44;5051804;28;20228;-77
2023/06/08 01:01:35;;;;;;;4.97;3.63;;;;;;;-143.21;64.35;71810.44;5052409;28;20205;-77
2023/06/08 01:04:06;;;;;;;7.53;4.00;;;;;;;-143.21;64.37;71808.44;5052353;28;20628;-76
2023/06/08 01:06:35;;;;;;;9.25;3.85;;;;;;;-143.21;64.22;71812.41;5052454;28;20190;-76
2023/06/08 01:09:12;;;;;;;7.20;3.85;;;;;;;-143.21;64.43;71816.38;5052229;28;20226;-78
2023/06/08 01:11:50;;;;;;;6.30;3.83;;;;;;;-143.21;65.01;71826.28;5052736;28;20181;-77
2023/06/08 01:14:25;;;;;;;7.22;3.85;;;;;;;-143.21;65.20;71830.25;5051812;28;20280;-78
2023/06/08 01:16:56;;;;;;;4.70;3.85;;;;;;;-143.21;64.88;71832.25;5052835;28;20579;-78
2023/06/08 01:19:38;;;;;;;5.55;4.30;;;;;;;-143.21;65.19;71834.22;5052397;28;20704;-78
2023/06/08 01:22:20;;;;;;;7.25;4.15;;;;;;;-143.21;65.31;71838.19;5056583;28;20213;-77
2023/06/08 01:24:52;;;;;;;8.05;3.80;;;;;;;-143.21;65.48;71844.16;5072038;28;20668;-77
2023/06/08 01:27:20;;;;;;;7.93;3.90;;;;;;;-143.21;65.35;71852.06;5071928;28;20778;-77
2023/06/08 01:29:48;;;;;;;6.65;4.18;;;;;;;-143.21;65.52;71860.00;5072175;28;20225;-78
2023/06/08 01:32:15;;;;;;;6.28;3.83;;;;;;;-143.21;65.76;71860.00;5071807;28;20233;-78
2023/06/08 01:34:42;;;;;;;6.63;3.72;;;;;;;-143.21;66.11;71867.94;5072247;28;20193;-77
2023/06/08 01:37:16;;;;;;;11.10;4.10;;;;;;;-143.21;66.21;71873.88;5072120;28;20201;-78
2023/06/08 01:39:55;;;;;;;8.00;3.97;;;;;;;-143.21;66.18;71873.88;5072192;28;20197;-78
2023/06/08 01:42:25;;;;;;;6.20;3.85;;;;;;;-143.21;66.51;71877.84;5072678;28;20188;-77
2023/06/08 01:44:58;;;;;;;5.13;3.90;;;;;;;-143.21;66.93;71877.84;5071910;28;20193;-78
2023/06/08 01:47:32;;;;;;;6.40;3.92;;;;;;;-143.21;66.73;71879.84;5072002;28;20269;-78
2023/06/08 01:49:59;;;;;;;5.70;3.90;;;;;;;-143.21;66.58;71881.81;5071737;28;20205;-79
2023/06/08 01:52:26;;;;;;;5.17;3.90;;;;;;;-143.21;66.69;71885.78;5071779;28;20197;-77
2023/06/08 01:54:55;;;;;;;6.07;3.90;;;;;;;-143.21;66.55;71883.81;5072137;28;20201;-77
2023/06/08 01:57:21;;;;;;;5.15;3.83;;;;;;;-143.21;66.77;71885.78;5071723;28;20196;-77
2023/06/08 01:59:49;;;;;;;8.43;4.32;;;;;;;-143.21;66.74;71885.78;5070866;28;20217;-79
2023/06/08 02:02:16;;;;;;;8.40;3.80;;;;;;;-143.21;66.98;71891.72;5071774;28;20700;-78
2023/06/08 02:04:43;;;;;;;8.33;4.07;;;;;;;-143.21;67.06;71903.63;5072056;28;20639;-77
2023/06/08 02:07:09;;;;;;;10.60;4.22;;;;;;;-143.21;67.51;71895.69;5072009;28;20197;-78
2023/06/08 02:09:36;;;;;;;5.28;3.92;;;;;;;-143.21;67.56;71891.72;5071835;28;20186;-78
2023/06/08 02:12:07;;;;;;;6.37;3.87;;;;;;;-143.21;67.38;71895.69;5071148;28;20204;-77
2023/06/08 02:14:34;;;;;;;9.10;4.07;;;;;;;-143.21;67.50;71893.72;5070786;28;20292;-77
2023/06/08 02:17:03;;;;;;;7.57;3.80;;;;;;;-143.21;67.49;71899.66;5071373;28;20205;-77
2023/06/08 02:19:31;;;;;;;9.07;3.77;;;;;;;-143.21;67.40;71889.75;5071549;28;20217;-77
2023/06/08 02:21:59;;;;;;;4.90;4.13;;;;;;;-143.21;67.72;71893.72;5071137;28;20208;-77
2023/06/08 02:24:26;;;;;;;13.17;4.17;;;;;;;-143.21;67.73;71897.69;5071049;28;20216;-78
2023/06/08 02:26:54;;;;;;;7.03;4.27;;;;;;;-143.21;67.85;71905.63;5071241;28;20197;-77
2023/06/08 02:29:22;;;;;;;10.47;5.07;;;;;;;-143.21;67.71;71901.66;5071057;28;20185;-77
2023/06/08 02:31:49;;;;;;;5.40;4.80;;;;;;;-143.21;67.32;71895.69;5071474;28;20758;-84
2023/06/08 02:34:16;;;;;;;10.67;4.53;;;;;;;-143.21;67.76;71911.56;5071827;28;20200;-83
2023/06/08 02:36:43;;;;;;;7.40;4.60;;;;;;;-143.21;67.69;71913.53;5072049;28;20227;-83
2023/06/08 02:39:10;;;;;;;5.90;4.20;;;;;;;-143.21;68.29;71913.53;5071427;28;20217;-83
2023/06/08 02:41:37;;;;;;;11.53;4.33;;;;;;;-143.21;68.38;71915.53;5071600;28;20280;-82
2023/06/08 02:44:04;;;;;;;8.37;4.00;;;;;;;-143.21;68.27;71911.56;5071548;28;20189;-81
2023/06/08 02:46:32;;;;;;;8.20;4.30;;;;;;;-143.21;68.25;71903.63;5071709;28;20208;-82
2023/06/08 02:49:00;;;;;;;7.43;4.33;;;;;;;-143.21;68.13;71911.56;5071509;28;20648;-81
2023/06/08 02:51:27;;;;;;;6.97;4.17;;;;;;;-143.21;68.24;71919.50;5071693;28;20189;-82
2023/06/08 02:53:53;;;;;;;7.07;4.50;;;;;;;-143.21;68.26;71915.53;5052141;28;20217;-81
2023/06/08 02:56:21;;;;;;;7.00;4.60;;;;;;;-143.21;68.45;71925.44;5051315;28;20669;-80
2023/06/08 02:58:48;;;;;;;15.00;5.00;;;;;;;-143.21;68.45;71925.44;5051215;28;20194;-80
2023/06/08 03:01:15;;;;;;;8.77;4.53;;;;;;;-143.21;68.41;71929.41;5051532;28;20224;-81
2023/06/08 03:03:44;;;;;;;8.47;4.63;;;;;;;-143.21;68.93;71937.34;5051226;28;20198;-80
2023/06/08 03:06:12;;;;;;;7.33;4.67;;;;;;;-143.21;68.65;71941.31;5051628;28;20190;-81
2023/06/08 03:08:39;;;;;;;7.63;4.93;;;;;;;-143.21;69.02;71955.19;5051847;28;20277;-82
2023/06/08 03:11:06;;;;;;;8.13;4.50;;;;;;;-143.21;69.29;71949.25;5052451;28;20723;-81
2023/06/08 03:13:34;;;;;;;9.77;4.93;;;;;;;-143.21;69.26;71943.28;5055218;28;20687;-83
2023/06/08 03:16:01;;;;;;;9.07;4.50;;;;;;;-143.21;68.84;71953.19;5067916;28;20193;-85
2023/06/08 03:18:27;;;;;;;6.40;4.40;;;;;;;-143.21;69.00;71955.19;5078179;28;20209;-86
2023/06/08 03:20:58;;;;;;;15.03;4.67;;;;;;;-143.21;69.16;71953.19;5065768;28;20201;-84
2023/06/08 03:23:25;;;;;;;9.37;4.87;;;;;;;-143.21;69.27;71947.25;5080229;28;20190;-83
2023/06/08 03:25:52;;;;;;;11.00;4.70;;;;;;;-143.21;69.12;71945.28;5082077;28;20193;-84
2023/06/08 03:28:19;;;;;;;11.00;4.60;;;;;;;-143.21;68.79;71937.34;5076171;28;20974;-84
2023/06/08 03:30:46;;;;;;;8.50;4.63;;;;;;;-143.21;68.66;71939.31;5074564;28;20221;-85
2023/06/08 03:33:14;;;;;;;11.37;4.67;;;;;;;-143.21;68.77;71933.38;5075061;28;20571;-82
2023/06/08 03:35:41;;;;;;;8.50;5.00;;;;;;;-143.21;68.55;71935.34;5074582;28;20277;-84
2023/06/08 03:38:09;;;;;;;29.23;5.33;;;;;;;-143.21;68.68;71937.34;5074942;28;20190;-84
2023/06/08 03:40:36;;;;;;;10.50;4.47;;;;;;;-143.21;68.47;71935.34;5074767;28;20229;-81
2023/06/08 03:43:03;;;;;;;8.73;4.93;;;;;;;-143.21;68.46;71943.28;5074566;28;20274;-81
2023/06/08 03:45:30;;;;;;;9.63;5.00;;;;;;;-143.21;68.42;71947.25;5074296;28;20201;-81
2023/06/08 03:47:57;;;;;;;14.17;4.93;;;;;;;-143.21;68.26;71949.25;5074445;28;20193;-82
2023/06/08 03:50:23;;;;;;;7.80;4.43;;;;;;;-143.21;68.36;71947.25;5054263;28;20285;-82
2023/06/08 03:52:50;;;;;;;9.17;4.73;;;;;;;-143.21;68.28;71945.28;5065152;28;20205;-81
2023/06/08 03:55:18;;;;;;;10.40;4.67;;;;;;;-143.21;68.42;71949.25;5074801;28;20197;-81
2023/06/08 03:57:45;;;;;;;9.23;4.90;;;;;;;-143.21;68.74;71947.25;5074524;28;20202;-82
2023/06/08 04:00:13;;;;;;;10.13;5.00;;;;;;;-143.21;68.85;71949.25;5074466;28;20221;-82
2023/06/08 04:02:40;;;;;;;9.77;5.00;;;;;;;-143.21;68.56;71945.28;5074821;28;20200;-85
2023/06/08 04:05:08;;;;;;;7.83;5.10;;;;;;;-143.21;68.62;71949.25;5074845;28;20189;-85
2023/06/08 04:07:36;;;;;;;10.67;5.40;;;;;;;-143.21;68.68;71945.28;5075000;28;20633;-86
2023/06/08 04:10:04;;;;;;;6.77;5.10;;;;;;;-143.21;68.82;71959.16;5074435;28;20196;-86
2023/06/08 04:12:32;;;;;;;6.97;5.00;;;;;;;-143.21;68.95;71959.16;5074325;28;20194;-86
2023/06/08 04:15:01;;;;;;;13.40;5.20;;;;;;;-143.21;68.99;71949.25;5073813;28;20193;-82
2023/06/08 04:17:28;;;;;;;11.30;5.30;;;;;;;-143.21;69.09;71941.31;5074247;28;20193;-83
2023/06/08 04:19:55;;;;;;;7.40;5.10;;;;;;;-143.21;69.08;71939.31;5074406;28;20249;-81
2023/06/08 04:22:22;;;;;;;7.23;4.53;;;;;;;-143.21;68.84;71929.41;5068798;28;20202;-91
2023/06/08 04:24:49;;;;;;;10.27;5.10;;;;;;;-143.21;69.25;71931.38;5053765;28;20288;-80
2023/06/08 04:27:17;;;;;;;12.70;5.17;;;;;;;-143.21;68.87;71933.38;5054036;28;20273;-82
2023/06/08 04:29:45;;;;;;;7.77;5.00;;;;;;;-143.21;69.26;71939.31;5053583;28;20250;-81
2023/06/08 04:32:12;;;;;;;12.80;5.13;;;;;;;-143.21;69.32;71943.28;5053069;28;20359;-81
2023/06/08 04:34:39;;;;;;;12.33;5.80;;;;;;;-143.21;69.10;71939.31;5053427;28;20194;-79
2023/06/08 04:37:07;;;;;;;11.83;5.70;;;;;;;-143.21;69.42;71931.38;5053651;28;20198;-81
2023/06/08 04:39:35;;;;;;;13.67;6.03;;;;;;;-143.21;69.08;71925.44;5053253;28;20222;-80
2023/06/08 04:42:02;;;;;;;15.00;5.35;;;;;;;-143.21;69.42;71919.50;5053151;28;20360;-81
2023/06/08 04:44:33;;;;;;;11.43;6.00;;;;;;;-143.21;69.14;71911.56;5053562;28;20205;-80
2023/06/08 04:47:02;;;;;;;15.37;5.77;;;;;;;-143.21;69.22;71905.63;5053231;28;20229;-81
2023/06/08 04:49:32;;;;;;;8.37;5.37;;;;;;;-143.21;69.37;71897.69;5052603;28;20227;-81
2023/06/08 04:51:59;;;;;;;11.48;5.70;;;;;;;-143.21;69.01;71909.56;5056494;28;20201;-81
2023/06/08 04:54:29;;;;;;;9.73;5.57;;;;;;;-143.21;68.82;71909.56;5073369;28;20657;-81
2023/06/08 04:56:59;;;;;;;9.95;5.68;;;;;;;-143.21;68.40;71911.56;5073172;28;20189;-81
2023/06/08 04:59:26;;;;;;;8.50;5.90;;;;;;;-143.21;68.42;71907.59;5073093;28;20190;-80
2023/06/08 05:01:53;;;;;;;8.63;5.63;;;;;;;-143.21;68.80;71915.53;5073532;28;20276;-81
2023/06/08 05:04:22;;;;;;;9.18;5.55;;;;;;;-143.21;69.00;71907.59;5073489;28;20200;-80
2023/06/08 05:06:49;;;;;;;10.90;5.27;;;;;;;-143.21;69.40;71897.69;5073139;28;20198;-81
2023/06/08 05:09:15;;;;;;;8.13;5.35;;;;;;;-143.21;68.44;71895.69;5073059;28;20190;-80
2023/06/08 05:11:42;;;;;;;9.70;5.65;;;;;;;-143.21;67.95;71889.75;5073324;28;20189;-81
2023/06/08 05:14:10;;;;;;;9.00;5.50;;;;;;;-143.21;68.18;71889.75;5073219;28;20193;-81
2023/06/08 05:16:38;;;;;;;12.48;5.90;;;;;;;-143.21;68.01;71885.78;5072935;28;20233;-81
2023/06/08 05:19:07;;;;;;;11.23;6.18;;;;;;;-143.21;67.95;71877.84;5072981;28;20591;-81
2023/06/08 05:21:39;;;;;;;9.65;5.85;;;;;;;-143.21;67.15;71867.94;5072763;28;20213;-81
2023/06/08 05:24:07;;;;;;;10.13;5.72;;;;;;;-143.21;67.29;71862.00;5032728;28;20198;-80
2023/06/08 05:26:34;;;;;;;13.50;5.95;;;;;;;-143.21;67.08;71865.97;5032802;28;20241;-80
2023/06/08 05:29:01;;;;;;;10.70;5.60;;;;;;;-143.21;66.58;71867.94;5032581;28;20195;-82
2023/06/08 05:31:28;;;;;;;17.02;5.97;;;;;;;-143.21;65.59;71879.84;5032459;28;20227;-82
2023/06/08 05:33:55;;;;;;;9.20;5.40;;;;;;;-143.21;65.20;71879.84;5032912;28;20283;-81
2023/06/08 05:36:22;;;;;;;11.93;5.35;;;;;;;-143.21;65.51;71889.75;5032640;28;20281;-80
2023/06/08 05:38:50;;;;;;;10.63;5.20;;;;;;;-143.21;65.58;71879.84;5032367;28;20202;-80
2023/06/08 05:41:17;;;;;;;12.90;6.03;;;;;;;-143.21;65.63;71867.94;5032155;28;20223;-80
2023/06/08 05:43:44;;;;;;;12.43;5.45;;;;;;;-143.21;65.54;71869.91;5032163;28;21172;-80
2023/06/08 05:46:10;;;;;;;19.05;5.97;;;;;;;-143.21;65.59;71860.00;5032533;28;20199;-80
2023/06/08 05:48:38;;;;;;;14.55;5.65;;;;;;;-143.21;65.14;71856.03;5032341;28;20211;-79
2023/06/08 05:51:05;;;;;;;11.02;5.57;;;;;;;-143.21;64.98;71848.09;5032383;28;20557;-80
2023/06/08 05:53:32;;;;;;;8.48;5.55;;;;;;;-143.21;65.19;71840.19;5064604;28;21005;-80
2023/06/08 05:56:00;;;;;;;9.00;5.45;;;;;;;-143.21;64.88;71844.16;5072113;28;20193;-81
2023/06/08 05:58:27;;;;;;;9.68;5.35;;;;;;;-143.21;64.59;71832.25;5071811;28;20194;-80
2023/06/08 06:00:54;;;;;;;14.50;5.47;;;;;;;-143.21;65.12;71834.22;5072281;28;20217;-80
2023/06/08 06:03:21;;;;;;;11.88;5.63;;;;;;;-143.21;63.59;71824.31;5071536;28;20197;-80
2023/06/08 06:05:49;;;;;;;7.93;5.30;;;;;;;-143.21;63.54;71824.31;5071207;28;20197;-82
2023/06/08 06:08:16;;;;;;;8.80;5.18;;;;;;;-143.21;63.23;71830.25;5071975;28;20205;-82
2023/06/08 06:10:42;;;;;;;18.73;5.80;;;;;;;-143.21;63.40;71812.41;5071752;28;20649;-82
2023/06/08 06:13:11;;;;;;;8.52;4.78;;;;;;;-143.21;63.53;71802.50;5072142;28;20189;-82
2023/06/08 06:15:37;;;;;;;12.77;5.03;;;;;;;-143.21;63.35;71798.53;5071991;28;20201;-82
2023/06/08 06:18:04;;;;;;;9.15;4.85;;;;;;;-143.21;62.69;71784.66;5071982;28;20204;-82
2023/06/08 06:20:31;;;;;;;9.35;5.80;;;;;;;-143.21;62.90;71788.63;5071887;28;20221;-82
2023/06/08 06:22:58;;;;;;;10.32;5.45;;;;;;;-143.21;62.08;71780.69;5060871;28;20511;-82
2023/06/08 06:25:25;;;;;;;13.93;5.53;;;;;;;-143.21;61.96;71772.75;5051858;28;20201;-80
2023/06/08 06:27:52;;;;;;;11.13;4.93;;;;;;;-143.21;61.56;71762.84;5051686;28;20653;-81
2023/06/08 06:30:20;;;;;;;11.60;5.57;;;;;;;-143.21;62.09;71758.88;5051278;28;20669;-81
2023/06/08 06:32:47;;;;;;;14.07;5.00;;;;;;;-143.21;62.31;71748.97;5051332;28;20316;-81
2023/06/08 06:35:14;;;;;;;13.25;5.30;;;;;;;-143.21;61.77;71737.06;5051601;28;20206;-83
2023/06/08 06:37:41;;;;;;;9.40;5.20;;;;;;;-143.21;61.55;71733.09;5051349;28;20190;-81
2023/06/08 06:40:08;;;;;;;10.98;5.15;;;;;;;-143.21;60.55;71723.19;5051704;28;20225;-82
2023/06/08 06:42:37;;;;;;;11.95;5.60;;;;;;;-143.21;60.97;71705.34;5051684;28;20241;-79
2023/06/08 06:45:04;;;;;;;12.40;5.25;;;;;;;-143.21;60.47;71705.34;5051101;28;20194;-79
2023/06/08 06:47:32;;;;;;;11.98;4.90;;;;;;;-143.21;62.10;71697.41;5050951;28;20566;-79
2023/06/08 06:50:00;;;;;;;10.32;4.65;;;;;;;-143.21;60.23;71693.44;5051295;28;20202;-80
2023/06/08 06:52:27;;;;;;;9.05;4.78;;;;;;;-143.21;59.88;71687.50;5058444;28;20550;-80
2023/06/08 06:54:53;;;;;;;11.55;5.45;;;;;;;-143.21;59.79;71675.59;5071558;28;20196;-81
2023/06/08 06:57:20;;;;;;;11.70;5.25;;;;;;;-143.21;59.71;71663.72;5071430;28;20216;-80
2023/06/08 06:59:48;;;;;;;7.53;4.80;;;;;;;-143.21;59.13;71649.81;5071640;28;20197;-80
2023/06/08 07:02:15;;;;;;;9.93;4.60;;;;;;;-143.21;58.71;71631.97;5071383;28;20316;-80
2023/06/08 07:04:43;;;;;;;7.90;4.20;;;;;;;-143.21;57.03;71624.06;5071192;28;20198;-81
2023/06/08 07:07:10;;;;;;;11.63;4.93;;;;;;;-143.21;56.73;71614.13;5071164;28;20246;-80
2023/06/08 07:09:37;;;;;;;10.40;4.50;;;;;;;-143.21;57.48;71610.16;5071147;28;20197;-81
2023/06/08 07:12:05;;;;;;;10.85;4.63;;;;;;;-143.21;57.26;71600.25;5071230;28;20259;-80
2023/06/08 07:14:32;;;;;;;10.90;4.72;;;;;;;-143.21;57.07;71606.22;5071131;28;20201;-81
2023/06/08 07:16:59;;;;;;;14.13;4.57;;;;;;;-143.21;56.79;71592.31;5071572;28;20250;-80
2023/06/08 07:19:26;;;;;;;17.40;5.82;;;;;;;-143.21;57.35;71572.50;5070983;28;20584;-81
2023/06/08 07:21:54;;;;;;;8.85;4.93;;;;;;;-143.21;57.07;71558.63;5067753;28;20282;-80
2023/06/08 07:24:21;;;;;;;9.95;4.60;;;;;;;-143.21;56.77;71542.75;5050455;28;20203;-80
2023/06/08 07:26:48;;;;;;;5.55;4.25;;;;;;;-143.21;56.67;71532.84;5050747;28;20194;-81
2023/06/08 07:29:15;;;;;;;9.13;5.00;;;;;;;-143.21;57.02;71516.97;5050824;28;20665;-81
2023/06/08 07:31:41;;;;;;;7.57;4.78;;;;;;;-143.21;56.77;71505.09;5050627;28;20218;-80
2023/06/08 07:34:08;;;;;;;13.40;4.95;;;;;;;-143.21;56.15;71509.06;5050775;28;20959;-81
2023/06/08 07:36:35;;;;;;;11.38;5.00;;;;;;;-143.21;56.65;71495.19;5050603;28;20202;-77
2023/06/08 07:39:04;;;;;;;8.23;5.00;;;;;;;-143.21;56.37;71477.34;5050834;28;20832;-79
2023/06/08 07:41:30;;;;;;;11.23;5.25;;;;;;;-143.21;56.16;71461.47;5050895;28;20771;-80
2023/06/08 07:43:57;;;;;;;14.93;5.40;;;;;;;-143.21;56.01;71449.56;5050537;28;20205;-80
2023/06/08 07:46:25;;;;;;;14.68;6.00;;;;;;;-143.21;55.77;71447.59;5051031;28;20194;-79
2023/06/08 07:48:52;;;;;;;12.45;4.82;;;;;;;-143.21;55.51;71441.63;5049787;28;20209;-79
2023/06/08 07:51:19;;;;;;;9.13;5.20;;;;;;;-143.21;56.45;71437.69;5061394;28;20197;-80
2023/06/08 07:53:45;;;;;;;7.43;5.05;;;;;;;-143.21;56.51;71427.75;5071009;28;20259;-79
2023/06/08 07:56:13;;;;;;;13.32;5.15;;;;;;;-143.21;56.89;71407.94;5070793;28;20197;-80
2023/06/08 07:58:40;;;;;;;9.52;5.25;;;;;;;-143.21;57.22;71394.06;5072297;28;20193;-81
2023/06/08 08:01:09;;;;;;;13.27;5.18;;;;;;;-143.21;57.65;71380.19;5073839;28;20217;-81
2023/06/08 08:03:39;;;;;;;6.53;5.20;;;;;;;-143.21;56.98;71368.28;5074088;28;20262;-82
2023/06/08 08:06:06;;;;;;;10.50;5.50;;;;;;;-143.21;55.99;71348.47;5074426;28;20206;-82
2023/06/08 08:08:33;;;;;;;7.28;5.47;;;;;;;-143.21;56.48;71336.56;5074413;28;20200;-82
2023/06/08 08:10:59;;;;;;;8.43;4.60;;;;;;;-143.21;54.64;71328.63;5066290;28;20205;-80
2023/06/08 08:13:29;;;;;;;7.55;5.05;;;;;;;-143.21;54.38;71320.69;5054104;28;20881;-80
2023/06/08 08:15:57;;;;;;;7.75;4.50;;;;;;;-143.21;54.97;71312.78;5053998;28;20200;-80
2023/06/08 08:18:24;;;;;;;12.45;6.00;;;;;;;-143.21;55.89;71300.88;5054093;28;20202;-82
2023/06/08 08:20:50;;;;;;;6.35;4.60;;;;;;;-143.21;54.00;71285.03;5053822;28;20236;-79
2023/06/08 08:23:17;;;;;;;6.40;4.88;;;;;;;-143.21;54.52;71288.97;5067980;28;20212;-81
2023/06/08 08:25:44;;;;;;;9.90;4.80;;;;;;;-143.21;54.01;71285.03;5073991;28;20288;-80
2023/06/08 08:28:11;;;;;;;7.03;4.80;;;;;;;-143.21;55.22;71277.09;5073873;28;20193;-80
2023/06/08 08:30:39;;;;;;;6.30;4.70;;;;;;;-143.21;55.33;71269.16;5073400;28;20205;-80
2023/06/08 08:33:06;;;;;;;7.60;4.88;;;;;;;-143.21;54.01;71253.28;5073820;28;20201;-80
2023/06/08 08:35:35;;;;;;;12.77;4.95;;;;;;;-143.21;54.17;71239.41;5074081;28;20201;-81
2023/06/08 08:38:01;;;;;;;11.90;5.30;;;;;;;-143.21;54.72;71239.41;5073173;28;20598;-81
2023/06/08 08:40:28;;;;;;;7.97;5.03;;;;;;;-143.21;54.17;71223.56;5073070;28;20205;-81
2023/06/08 08:43:02;;;;;;;9.77;5.00;;;;;;;-143.21;54.85;71219.59;5073286;28;20672;-80
2023/06/08 08:45:34;;;;;;;12.63;5.60;;;;;;;-143.21;54.03;71213.66;5073661;28;20195;-81
2023/06/08 08:48:03;;;;;;;8.73;4.90;;;;;;;-143.21;54.89;71209.69;5073893;28;20201;-81
2023/06/08 08:50:34;;;;;;;9.60;4.70;;;;;;;-143.21;54.95;71197.78;5073285;28;20229;-81
2023/06/08 08:53:01;;;;;;;6.80;4.68;;;;;;;-143.21;54.12;71197.78;5061506;28;20206;-81
2023/06/08 08:55:29;;;;;;;13.65;4.95;;;;;;;-143.21;54.04;71183.91;5053378;28;20263;-81
2023/06/08 08:58:00;;;;;;;11.27;4.60;;;;;;;-143.21;53.64;71177.97;5053661;28;20233;-81
2023/06/08 09:00:27;;;;;;;7.90;4.97;;;;;;;-143.21;53.93;71164.09;5053260;28;20277;-81
2023/06/08 09:02:54;;;;;;;5.88;4.50;;;;;;;-143.21;55.46;71152.19;5053512;28;20220;-80
2023/06/08 09:05:23;;;;;;;6.72;4.82;;;;;;;-143.21;53.09;71142.28;5052962;28;20194;-80
2023/06/08 09:07:53;;;;;;;7.88;5.20;;;;;;;-143.21;54.17;71128.41;5053140;28;20259;-80
2023/06/08 09:10:25;;;;;;;9.27;5.40;;;;;;;-143.21;53.40;71132.38;5052612;28;20241;-79
2023/06/08 09:12:52;;;;;;;7.10;4.75;;;;;;;-143.21;53.07;71126.41;5052876;28;20194;-78
2023/06/08 09:15:27;;;;;;;12.63;4.82;;;;;;;-143.21;53.43;71112.53;5052970;28;20194;-78
2023/06/08 09:17:55;;;;;;;9.57;5.05;;;;;;;-143.21;53.62;71106.59;5053311;28;20193;-77
2023/06/08 09:20:29;;;;;;;5.22;4.00;;;;;;;-143.21;55.08;71086.75;5052326;28;20194;-78
2023/06/08 09:22:56;;;;;;;6.63;4.88;;;;;;;-143.21;54.44;71074.88;5063430;28;20700;-78
2023/06/08 09:25:38;;;;;;;8.75;4.95;;;;;;;-143.21;53.65;71066.94;5072174;28;20201;-77
2023/06/08 09:28:25;;;;;;;5.32;4.30;;;;;;;-143.21;53.06;71059.00;5074137;28;20174;-81
2023/06/08 09:30:52;;;;;;;9.38;4.30;;;;;;;-143.21;51.53;71041.16;5072463;28;20186;-81
2023/06/08 09:33:26;;;;;;;6.22;4.65;;;;;;;-143.21;52.20;71041.16;5064274;28;20281;-80
2023/06/08 09:36:15;;;;;;;10.02;4.20;;;;;;;-143.21;52.95;71029.28;5051422;28;20191;-79
2023/06/08 09:38:43;;;;;;;5.05;3.88;;;;;;;-143.21;53.26;71009.44;5056042;28;20202;-79
2023/06/08 09:41:15;;;;;;;10.45;4.50;;;;;;;-143.21;51.48;70997.56;5052528;28;20218;-79
2023/06/08 09:43:43;;;;;;;8.25;4.45;;;;;;;-143.21;50.86;70999.53;5051554;28;20185;-78
2023/06/08 09:46:11;;;;;;;7.18;4.28;;;;;;;-143.21;51.05;70983.69;5052062;28;20200;-79
2023/06/08 09:48:39;;;;;;;5.20;4.25;;;;;;;-143.21;50.74;70971.78;5051912;28;20201;-78
2023/06/08 09:51:09;;;;;;;6.00;4.40;;;;;;;-143.21;49.05;70949.97;5052228;28;20753;-78
2023/06/08 09:53:37;;;;;;;6.93;4.38;;;;;;;-143.21;49.85;70932.13;5067678;28;20232;-78
2023/06/08 09:56:05;;;;;;;11.80;4.38;;;;;;;-143.21;50.71;70918.25;5063350;28;20197;-78
2023/06/08 09:58:37;;;;;;;6.82;3.97;;;;;;;-143.21;49.05;70906.38;5071626;28;20233;-78
2023/06/08 10:01:10;;;;;;;6.95;4.28;;;;;;;-143.21;50.02;70898.44;5071787;28;20204;-78
2023/06/08 10:03:39;;;;;;;7.40;4.63;;;;;;;-143.21;49.83;70884.56;5071863;28;20185;-78
2023/06/08 10:06:09;;;;;;;6.32;4.35;;;;;;;-143.21;49.32;70868.72;5071553;28;20197;-77
2023/06/08 10:08:38;;;;;;;5.85;3.80;;;;;;;-143.21;49.10;70848.88;5072006;28;20197;-79
2023/06/08 10:11:07;;;;;;;5.60;4.10;;;;;;;-143.21;47.42;70835.00;5071309;28;20209;-79
2023/06/08 10:13:35;;;;;;;5.63;4.28;;;;;;;-143.21;49.02;70821.13;5071538;28;20198;-79
2023/06/08 10:16:02;;;;;;;8.77;4.32;;;;;;;-143.21;48.68;70803.28;5071290;28;20221;-78
2023/06/08 10:18:30;;;;;;;8.13;3.90;;;;;;;-143.21;47.61;70779.50;5071385;28;20193;-79
2023/06/08 10:20:57;;;;;;;6.68;4.03;;;;;;;-143.21;48.38;70769.59;5070162;28;20196;-78
2023/06/08 10:23:26;;;;;;;6.43;4.30;;;;;;;-143.21;46.89;70761.66;5055680;28;20202;-78
2023/06/08 10:25:53;;;;;;;6.85;3.83;;;;;;;-143.21;46.11;70751.75;5051076;28;20194;-78
2023/06/08 10:28:21;;;;;;;5.68;3.80;;;;;;;-143.21;46.41;70739.84;5050887;28;20319;-78
2023/06/08 10:30:47;;;;;;;6.45;3.90;;;;;;;-143.21;47.49;70737.88;5050333;28;20225;-79
2023/06/08 10:33:16;;;;;;;5.05;4.10;;;;;;;-143.21;46.48;70725.97;5050330;28;20593;-78
2023/06/08 10:36:02;;;;;;;12.60;4.28;;;;;;;-143.21;45.81;70718.06;5050674;28;20194;-79
2023/06/08 10:38:36;;;;;;;8.57;4.32;;;;;;;-143.21;46.22;70690.31;5049174;28;20665;-79
2023/06/08 10:41:03;;;;;;;7.65;4.18;;;;;;;-143.21;45.74;70684.34;5050772;28;20206;-78
2023/06/08 10:43:29;;;;;;;7.00;3.63;;;;;;;-143.21;44.58;70670.47;5050914;28;20576;-78
2023/06/08 10:45:58;;;;;;;6.90;3.80;;;;;;;-143.21;43.52;70656.59;5050693;28;20580;-79
2023/06/08 10:48:36;;;;;;;7.60;4.15;;;;;;;-143.21;45.01;70630.84;5051096;28;20198;-78
2023/06/08 10:51:06;;;;;;;6.00;3.75;;;;;;;-143.21;45.17;70614.97;5051008;28;20284;-79
2023/06/08 10:53:56;;;;;;;4.75;3.53;;;;;;;-143.21;44.19;70587.22;5064316;28;20267;-78
2023/06/08 10:56:26;;;;;;;7.35;3.75;;;;;;;-143.21;43.64;70569.38;5030915;28;20557;-79
2023/06/08 10:58:53;;;;;;;7.15;3.95;;;;;;;-143.21;43.17;70555.50;5031411;28;20273;-79
2023/06/08 11:01:21;;;;;;;7.47;3.70;;;;;;;-143.21;42.49;70541.63;5030806;28;20195;-79
2023/06/08 11:03:50;;;;;;;7.60;3.70;;;;;;;-143.21;43.21;70533.72;5042371;28;20565;-78
2023/06/08 11:06:20;;;;;;;7.57;4.03;;;;;;;-143.21;41.78;70507.94;5051040;28;20186;-78
2023/06/08 11:08:49;;;;;;;5.65;3.40;;;;;;;-143.21;41.72;70496.06;5050887;28;20609;-79
2023/06/08 11:11:15;;;;;;;4.88;3.33;;;;;;;-143.21;41.62;70486.16;5050355;28;20244;-78
2023/06/08 11:13:42;;;;;;;5.68;3.40;;;;;;;-143.21;41.90;70468.31;5050183;28;20205;-78
2023/06/08 11:16:09;;;;;;;5.45;3.63;;;;;;;-143.21;40.40;70470.28;5050539;28;20213;-78
2023/06/08 11:18:36;;;;;;;5.65;4.03;;;;;;;-143.21;40.28;70468.31;5050502;28;20205;-79
2023/06/08 11:21:03;;;;;;;7.38;3.88;;;;;;;-143.21;40.82;70496.06;5050954;28;20286;-78